Air Resources Laboratory banner image
Air Resources Laboratory web site National Oceanic and Atmospheric Administration (NOAA)

nc metar


K2DP 131556Z AUTO 31012G21KT 10SM CLR 01/M11 A2994 RMK AO2 SLPNO T00121113 $=
K2DP 131629Z AUTO 28014G23KT 10SM CLR 02/M11 A2993 RMK AO2 WSHFT 17 SLPNO $=
KAKH 131554Z AUTO 19006KT 10SM CLR 03/M14 A2999 RMK AO2 SLP162 T00331139=
KASJ 131545Z AUTO 23003KT 10SM CLR 01/M12 A2997 RMK AO2 T00071123=
KAVL 131554Z VRB03KT 10SM CLR M01/M16 A2995 RMK AO2 SLP156 T10111156=
KBUY 131554Z AUTO 25008KT 10SM CLR 02/M16 A2997 RMK AO2 SLP151 T00171161=
KCLT 131552Z 19010KT 10SM FEW250 04/M14 A2999 RMK AO2 SLP160 T00391139=
KDPL 131545Z AUTO 30011G16KT 10SM CLR 03/M14 A3002 RMK AO2=
KECG 131554Z 28019KT 10SM CLR 01/M12 A2994 RMK AO2 PK WND 27026/1514 SLP137
 T00111122=
KEDE 131545Z AUTO 28010KT 10SM CLR 02/M11 A2996 RMK AO2 T00201107=
KEQY 131553Z AUTO 22007KT 10SM CLR 04/M13 A2999 RMK AO2 SLP176 T00391133=
KEWN 131554Z 31009G25KT 10SM CLR 03/M12 A2999 RMK AO2 PK WND 32026/1524 SLP157
 T00281117=
KEXX 131545Z AUTO 20003KT 10SM CLR 02/M14 A2997 RMK AO2 T00221144=
KFAY 131553Z VRB05KT 10SM CLR 04/M13 A3001 RMK AO2 SLP159 T00391128=
KFBG 131556Z AUTO 28006KT 10SM CLR 04/M15 A3000 RMK AO2 SLP164 T00411147 $=
KFQD 131600Z AUTO 27006KT 10SM CLR 03/M15 A2997 RMK AO2 T00301152=
KGEV 131550Z AUTO 25008KT 210V270 10SM SCT029 M05/M17 A2982 RMK AO2 T10481172=
KGSB 131556Z AUTO 28014KT 10SM CLR 04/M14 A2998 RMK AO2 SLP156 T00361141 $=
KGSO 131554Z 24009KT 10SM BKN250 01/M16 A2995 RMK AO2 SLP149 T00111156=
KHBI 131600Z AUTO 27006KT 10SM CLR 01/M14 A3000 RMK AO2 T00071144=
KHFF 131556Z 30009KT 10SM FEW220 04/M14 A3000 RMK SLP177 T00201112 $=
KHKY 131553Z 26009KT 10SM CLR 03/M16 A2994 RMK AO2 SLP137 T00281161=
KHRJ 131545Z AUTO 29004G08KT 10SM CLR 03/M19 A3001 RMK AO2 T00271188=
KHSE 131551Z AUTO 31013G24KT 10SM CLR 02/M09 A2995 RMK AO2 PK WND 29027/1506
 SLP142 T00171094 TSNO=
KIGX 131556Z AUTO VRB05KT 10SM CLR 01/M17 A2999 RMK AO2 SLP158 T00111167=
KILM 131553Z AUTO 29013G20KT 10SM CLR 06/M12 A3002 RMK AO2 SLP166 T00561117=
KINT 131554Z AUTO 24004KT 10SM CLR 01/M16 A2996 RMK AO2 SLP153 T00061161 $=
KIPJ 131545Z AUTO 27006KT 10SM CLR 03/M16 A2998 RMK AO2 T00301161=
KISO 131556Z 29009KT 10SM CLR 03/M15 A3000 RMK A02=
KJNX 131555Z AUTO 27006KT 10SM CLR 02/M15 A3001 RMK AO2=
KJQF 131550Z 26008KT 10SM CLR 04/M16 A3001=
KLBT 131554Z AUTO 29008KT 260V330 10SM CLR 04/M12 A3003 RMK AO2 SLP169
 T00441122=
KMEB 131552Z AUTO 34007KT 10SM CLR 04/M15 A3003 RMK AO2 SLP171 T00441150=
KMQI 131545Z AUTO 30012G22KT 10SM CLR 00/M11 A2994 RMK AO2 T00031112=
KMRH 131558Z AUTO 30021G26KT 10SM CLR 04/M12 A2998 RMK AO2 PK WND 32027/1545
 SLP151 T00391117 TSNO=
KMRN 131545Z AUTO 26009G14KT 10SM CLR 02/M17 A2998 RMK AO2 T00241175=
KMWK 131545Z AUTO 23004KT 10SM CLR 00/M19 A2995 RMK AO2 T00011193=
KNCA 131556Z 29016G23KT 10SM CLR 04/M13 A2999 RMK AO2 SLP159 T00441128=
KNJM 131557Z AUTO 31012G19KT 10SM CLR 04/M12 A2999 RMK AO2 SLP158 T00391122=
KNKT 131554Z 30016G24KT 10SM CLR 03/M13 A2999 RMK AO2 SLP152 T00331133=
KOAJ 131556Z AUTO 30010G16KT 10SM CLR 04/M13 A3000 RMK AO2 SLP165 T00391133=
KOCW 131545Z AUTO 28012G20KT 10SM CLR 02/M12 A3000 RMK AO2 T00191125=
KPGV 131545Z AUTO 30010G17KT 10SM CLR 02/M13 A3002 RMK AO2=
KPOB 131556Z AUTO 30009KT 10SM CLR 04/M15 A3000 RMK AO2 SLP163 T00401148 $=
KRDU 131551Z 27007KT 10SM SCT250 01/M17 A2999 RMK AO2 SLP160 T00111167=
KRUQ 131545Z AUTO 26003KT 10SM CLR 02/M14 A2997 RMK AO2 T00181137=
KRWI 131553Z AUTO 25009G19KT 10SM CLR 02/M13 A2999 RMK AO2 SLP158 T00171133=
KSOP 131556Z AUTO 29005KT 10SM CLR 03/M16 A3001 RMK AO2 SLP181 T00331156=
KSVH 131545Z AUTO 23006KT 10SM CLR 01/M20 A2995 RMK AO2 T00141199=
KTDF 131600Z AUTO 26011G16KT 210V300 10SM CLR 00/M16 A2998 RMK AO2=
KTNB 131555Z AUTO 30009G21KT 260V320 10SM BKN032 M04/M21 A2985 RMK AO2
 T10431206=
KUKF 131555Z AUTO 25007KT 10SM CLR 00/M14 A2998 RMK AO2=
KVUJ 131545Z AUTO 25008KT 10SM CLR 03/M13 A3003 RMK AO2 T00291135=